sensor_id;sensor_type;location;lat;lon;timestamp;P1;durP1;ratioP1;P2;durP2;ratioP2
22429;SDS011;11382;48.086;11.632;2023-12-14T00:02:03;1.95;;;0.50;;
22429;SDS011;11382;48.086;11.632;2023-12-14T00:04:31;0.50;;;0.40;;
22429;SDS011;11382;48.086;11.632;2023-12-14T00:07:01;1.17;;;0.60;;
22429;SDS011;11382;48.086;11.632;2023-12-14T00:09:29;0.77;;;0.50;;
22429;SDS011;11382;48.086;11.632;2023-12-14T00:11:57;1.05;;;0.63;;
22429;SDS011;11382;48.086;11.632;2023-12-14T00:14:24;0.77;;;0.70;;
22429;SDS011;11382;48.086;11.632;2023-12-14T00:16:52;0.70;;;0.50;;
22429;SDS011;11382;48.086;11.632;2023-12-14T00:19:23;1.67;;;0.63;;
22429;SDS011;11382;48.086;11.632;2023-12-14T00:21:51;1.27;;;0.73;;
22429;SDS011;11382;48.086;11.632;2023-12-14T00:24:20;0.82;;;0.75;;
22429;SDS011;11382;48.086;11.632;2023-12-14T00:26:48;0.57;;;0.47;;
22429;SDS011;11382;48.086;11.632;2023-12-14T00:29:16;0.68;;;0.60;;
22429;SDS011;11382;48.086;11.632;2023-12-14T00:31:44;1.08;;;0.50;;
22429;SDS011;11382;48.086;11.632;2023-12-14T00:34:12;0.95;;;0.60;;
22429;SDS011;11382;48.086;11.632;2023-12-14T00:36:40;1.48;;;0.40;;
22429;SDS011;11382;48.086;11.632;2023-12-14T00:39:09;0.68;;;0.60;;
22429;SDS011;11382;48.086;11.632;2023-12-14T00:41:38;5.00;;;2.65;;
22429;SDS011;11382;48.086;11.632;2023-12-14T00:44:06;4.07;;;1.63;;
22429;SDS011;11382;48.086;11.632;2023-12-14T00:46:34;1.80;;;1.45;;
22429;SDS011;11382;48.086;11.632;2023-12-14T00:49:02;1.33;;;1.20;;
22429;SDS011;11382;48.086;11.632;2023-12-14T00:51:30;3.17;;;1.52;;
22429;SDS011;11382;48.086;11.632;2023-12-14T00:53:58;1.17;;;0.88;;
22429;SDS011;11382;48.086;11.632;2023-12-14T00:56:26;0.90;;;0.73;;
22429;SDS011;11382;48.086;11.632;2023-12-14T00:58:55;1.38;;;1.02;;
22429;SDS011;11382;48.086;11.632;2023-12-14T01:01:23;1.08;;;0.70;;
22429;SDS011;11382;48.086;11.632;2023-12-14T01:03:51;0.93;;;0.80;;
22429;SDS011;11382;48.086;11.632;2023-12-14T01:06:20;0.95;;;0.80;;
22429;SDS011;11382;48.086;11.632;2023-12-14T01:08:48;1.27;;;0.90;;
22429;SDS011;11382;48.086;11.632;2023-12-14T01:11:15;2.80;;;1.13;;
22429;SDS011;11382;48.086;11.632;2023-12-14T01:13:44;1.13;;;0.90;;
22429;SDS011;11382;48.086;11.632;2023-12-14T01:16:13;1.08;;;0.90;;
22429;SDS011;11382;48.086;11.632;2023-12-14T01:18:41;1.55;;;1.02;;
22429;SDS011;11382;48.086;11.632;2023-12-14T01:21:09;1.20;;;1.10;;
22429;SDS011;11382;48.086;11.632;2023-12-14T01:23:37;2.88;;;1.27;;
22429;SDS011;11382;48.086;11.632;2023-12-14T01:26:05;1.15;;;0.95;;
22429;SDS011;11382;48.086;11.632;2023-12-14T01:28:34;2.10;;;1.27;;
22429;SDS011;11382;48.086;11.632;2023-12-14T01:31:02;1.48;;;1.05;;
22429;SDS011;11382;48.086;11.632;2023-12-14T01:33:31;1.27;;;1.02;;
22429;SDS011;11382;48.086;11.632;2023-12-14T01:36:00;1.30;;;1.20;;
22429;SDS011;11382;48.086;11.632;2023-12-14T01:38:28;1.00;;;0.98;;
22429;SDS011;11382;48.086;11.632;2023-12-14T01:40:56;1.00;;;0.90;;
22429;SDS011;11382;48.086;11.632;2023-12-14T01:43:25;2.08;;;1.02;;
22429;SDS011;11382;48.086;11.632;2023-12-14T01:45:53;1.05;;;0.90;;
22429;SDS011;11382;48.086;11.632;2023-12-14T01:48:21;1.23;;;0.90;;
22429;SDS011;11382;48.086;11.632;2023-12-14T01:50:51;1.70;;;1.05;;
22429;SDS011;11382;48.086;11.632;2023-12-14T01:53:18;0.95;;;0.80;;
22429;SDS011;11382;48.086;11.632;2023-12-14T01:55:46;1.35;;;1.10;;
22429;SDS011;11382;48.086;11.632;2023-12-14T01:58:15;1.95;;;1.10;;
22429;SDS011;11382;48.086;11.632;2023-12-14T02:00:43;2.15;;;0.90;;
22429;SDS011;11382;48.086;11.632;2023-12-14T02:03:20;1.27;;;0.70;;
22429;SDS011;11382;48.086;11.632;2023-12-14T02:05:48;1.38;;;1.00;;
22429;SDS011;11382;48.086;11.632;2023-12-14T02:08:17;1.08;;;0.98;;
22429;SDS011;11382;48.086;11.632;2023-12-14T02:10:45;0.73;;;0.73;;
22429;SDS011;11382;48.086;11.632;2023-12-14T02:13:14;1.65;;;1.00;;
22429;SDS011;11382;48.086;11.632;2023-12-14T02:15:42;1.45;;;0.90;;
22429;SDS011;11382;48.086;11.632;2023-12-14T02:18:10;1.30;;;1.05;;
22429;SDS011;11382;48.086;11.632;2023-12-14T02:20:38;1.35;;;1.10;;
22429;SDS011;11382;48.086;11.632;2023-12-14T02:23:08;1.40;;;1.00;;
22429;SDS011;11382;48.086;11.632;2023-12-14T02:25:36;1.55;;;1.00;;
22429;SDS011;11382;48.086;11.632;2023-12-14T02:32:28;1.40;;;1.30;;
22429;SDS011;11382;48.086;11.632;2023-12-14T02:34:57;1.48;;;1.05;;
22429;SDS011;11382;48.086;11.632;2023-12-14T02:37:25;1.88;;;1.10;;
22429;SDS011;11382;48.086;11.632;2023-12-14T02:39:54;1.05;;;0.90;;
22429;SDS011;11382;48.086;11.632;2023-12-14T02:42:22;1.00;;;0.90;;
22429;SDS011;11382;48.086;11.632;2023-12-14T02:44:50;1.55;;;0.93;;
22429;SDS011;11382;48.086;11.632;2023-12-14T02:47:19;1.65;;;1.10;;
22429;SDS011;11382;48.086;11.632;2023-12-14T02:49:47;1.30;;;1.00;;
22429;SDS011;11382;48.086;11.632;2023-12-14T02:52:15;1.38;;;1.08;;
22429;SDS011;11382;48.086;11.632;2023-12-14T02:54:43;1.25;;;1.15;;
22429;SDS011;11382;48.086;11.632;2023-12-14T02:57:12;2.45;;;1.30;;
22429;SDS011;11382;48.086;11.632;2023-12-14T02:59:40;1.10;;;0.98;;
22429;SDS011;11382;48.086;11.632;2023-12-14T03:02:08;1.75;;;1.13;;
22429;SDS011;11382;48.086;11.632;2023-12-14T03:04:37;1.13;;;1.02;;
22429;SDS011;11382;48.086;11.632;2023-12-14T03:07:05;2.17;;;1.40;;
22429;SDS011;11382;48.086;11.632;2023-12-14T03:09:33;1.50;;;1.10;;
22429;SDS011;11382;48.086;11.632;2023-12-14T03:12:02;1.50;;;0.98;;
22429;SDS011;11382;48.086;11.632;2023-12-14T03:14:32;1.27;;;1.00;;
22429;SDS011;11382;48.086;11.632;2023-12-14T03:17:00;1.83;;;1.33;;
22429;SDS011;11382;48.086;11.632;2023-12-14T03:19:28;1.73;;;1.35;;
22429;SDS011;11382;48.086;11.632;2023-12-14T03:21:56;1.80;;;1.17;;
22429;SDS011;11382;48.086;11.632;2023-12-14T03:24:24;0.80;;;0.80;;
22429;SDS011;11382;48.086;11.632;2023-12-14T03:26:52;1.10;;;1.00;;
22429;SDS011;11382;48.086;11.632;2023-12-14T03:29:20;1.38;;;1.10;;
22429;SDS011;11382;48.086;11.632;2023-12-14T03:31:49;0.73;;;0.73;;
22429;SDS011;11382;48.086;11.632;2023-12-14T03:34:18;1.05;;;0.85;;
22429;SDS011;11382;48.086;11.632;2023-12-14T03:36:45;1.15;;;1.05;;
22429;SDS011;11382;48.086;11.632;2023-12-14T03:39:13;0.90;;;0.90;;
22429;SDS011;11382;48.086;11.632;2023-12-14T03:41:42;0.70;;;0.70;;
22429;SDS011;11382;48.086;11.632;2023-12-14T03:44:10;1.38;;;0.82;;
22429;SDS011;11382;48.086;11.632;2023-12-14T03:46:38;1.02;;;1.00;;
22429;SDS011;11382;48.086;11.632;2023-12-14T03:49:08;1.35;;;1.00;;
22429;SDS011;11382;48.086;11.632;2023-12-14T03:51:36;1.70;;;1.42;;
22429;SDS011;11382;48.086;11.632;2023-12-14T03:54:04;1.40;;;1.00;;
22429;SDS011;11382;48.086;11.632;2023-12-14T03:56:32;0.98;;;0.88;;
22429;SDS011;11382;48.086;11.632;2023-12-14T03:59:00;1.30;;;1.08;;
22429;SDS011;11382;48.086;11.632;2023-12-14T04:01:28;1.65;;;0.93;;
22429;SDS011;11382;48.086;11.632;2023-12-14T04:03:56;1.08;;;0.98;;
22429;SDS011;11382;48.086;11.632;2023-12-14T04:06:25;1.35;;;0.90;;
22429;SDS011;11382;48.086;11.632;2023-12-14T04:08:53;1.00;;;0.90;;
22429;SDS011;11382;48.086;11.632;2023-12-14T04:11:21;2.00;;;1.50;;
22429;SDS011;11382;48.086;11.632;2023-12-14T04:13:49;1.20;;;1.10;;
22429;SDS011;11382;48.086;11.632;2023-12-14T04:16:19;1.40;;;1.30;;
22429;SDS011;11382;48.086;11.632;2023-12-14T04:18:51;2.75;;;1.40;;
22429;SDS011;11382;48.086;11.632;2023-12-14T04:21:19;1.92;;;1.30;;
22429;SDS011;11382;48.086;11.632;2023-12-14T04:23:49;1.30;;;1.00;;
22429;SDS011;11382;48.086;11.632;2023-12-14T04:26:17;2.05;;;1.10;;
22429;SDS011;11382;48.086;11.632;2023-12-14T04:28:44;1.45;;;1.30;;
22429;SDS011;11382;48.086;11.632;2023-12-14T04:31:13;1.27;;;1.17;;
22429;SDS011;11382;48.086;11.632;2023-12-14T04:33:41;2.85;;;1.30;;
22429;SDS011;11382;48.086;11.632;2023-12-14T04:36:09;2.00;;;1.30;;
22429;SDS011;11382;48.086;11.632;2023-12-14T04:38:37;3.05;;;1.50;;
22429;SDS011;11382;48.086;11.632;2023-12-14T04:41:06;1.52;;;1.30;;
22429;SDS011;11382;48.086;11.632;2023-12-14T04:43:34;1.23;;;1.13;;
22429;SDS011;11382;48.086;11.632;2023-12-14T04:46:03;2.10;;;1.27;;
22429;SDS011;11382;48.086;11.632;2023-12-14T04:48:32;0.88;;;0.88;;
22429;SDS011;11382;48.086;11.632;2023-12-14T04:51:00;2.25;;;1.20;;
22429;SDS011;11382;48.086;11.632;2023-12-14T04:53:28;1.13;;;1.02;;
22429;SDS011;11382;48.086;11.632;2023-12-14T04:55:56;2.47;;;1.30;;
22429;SDS011;11382;48.086;11.632;2023-12-14T04:58:25;2.33;;;1.10;;
22429;SDS011;11382;48.086;11.632;2023-12-14T05:00:53;1.00;;;0.90;;
22429;SDS011;11382;48.086;11.632;2023-12-14T05:03:22;2.63;;;0.90;;
22429;SDS011;11382;48.086;11.632;2023-12-14T05:05:50;1.15;;;1.00;;
22429;SDS011;11382;48.086;11.632;2023-12-14T05:08:18;1.80;;;1.08;;
22429;SDS011;11382;48.086;11.632;2023-12-14T05:10:46;1.42;;;0.75;;
22429;SDS011;11382;48.086;11.632;2023-12-14T05:13:14;1.45;;;0.93;;
22429;SDS011;11382;48.086;11.632;2023-12-14T05:15:43;1.13;;;0.73;;
22429;SDS011;11382;48.086;11.632;2023-12-14T05:18:11;2.25;;;0.90;;
22429;SDS011;11382;48.086;11.632;2023-12-14T05:20:40;0.85;;;0.70;;
22429;SDS011;11382;48.086;11.632;2023-12-14T05:23:08;1.17;;;0.70;;
22429;SDS011;11382;48.086;11.632;2023-12-14T05:25:36;1.42;;;1.05;;
22429;SDS011;11382;48.086;11.632;2023-12-14T05:28:04;2.38;;;1.10;;
22429;SDS011;11382;48.086;11.632;2023-12-14T05:30:32;1.10;;;0.93;;
22429;SDS011;11382;48.086;11.632;2023-12-14T05:33:01;3.88;;;1.23;;
22429;SDS011;11382;48.086;11.632;2023-12-14T05:35:29;1.08;;;0.77;;
22429;SDS011;11382;48.086;11.632;2023-12-14T05:37:57;1.23;;;0.90;;
22429;SDS011;11382;48.086;11.632;2023-12-14T05:40:25;1.50;;;1.10;;
22429;SDS011;11382;48.086;11.632;2023-12-14T05:42:53;1.77;;;0.90;;
22429;SDS011;11382;48.086;11.632;2023-12-14T05:45:22;1.67;;;0.80;;
22429;SDS011;11382;48.086;11.632;2023-12-14T05:47:50;1.48;;;1.00;;
22429;SDS011;11382;48.086;11.632;2023-12-14T05:50:19;2.58;;;1.20;;
22429;SDS011;11382;48.086;11.632;2023-12-14T05:52:48;1.20;;;1.10;;
22429;SDS011;11382;48.086;11.632;2023-12-14T05:55:17;1.90;;;1.50;;
22429;SDS011;11382;48.086;11.632;2023-12-14T05:57:48;2.42;;;1.30;;
22429;SDS011;11382;48.086;11.632;2023-12-14T06:00:17;2.70;;;1.10;;
22429;SDS011;11382;48.086;11.632;2023-12-14T06:02:45;2.40;;;1.70;;
22429;SDS011;11382;48.086;11.632;2023-12-14T06:05:13;3.22;;;1.63;;
22429;SDS011;11382;48.086;11.632;2023-12-14T06:07:43;6.70;;;2.10;;
22429;SDS011;11382;48.086;11.632;2023-12-14T06:10:11;2.83;;;1.90;;
22429;SDS011;11382;48.086;11.632;2023-12-14T06:12:39;3.42;;;2.03;;
22429;SDS011;11382;48.086;11.632;2023-12-14T06:15:08;3.63;;;2.20;;
22429;SDS011;11382;48.086;11.632;2023-12-14T06:17:37;3.95;;;2.13;;
22429;SDS011;11382;48.086;11.632;2023-12-14T06:20:06;8.45;;;2.55;;
22429;SDS011;11382;48.086;11.632;2023-12-14T06:22:35;5.93;;;2.20;;
22429;SDS011;11382;48.086;11.632;2023-12-14T06:25:05;4.70;;;2.30;;
22429;SDS011;11382;48.086;11.632;2023-12-14T06:27:34;3.15;;;2.10;;
22429;SDS011;11382;48.086;11.632;2023-12-14T06:30:02;5.13;;;2.65;;
22429;SDS011;11382;48.086;11.632;2023-12-14T06:32:30;4.07;;;2.75;;
22429;SDS011;11382;48.086;11.632;2023-12-14T06:34:58;4.85;;;2.70;;
22429;SDS011;11382;48.086;11.632;2023-12-14T06:37:27;4.78;;;2.70;;
22429;SDS011;11382;48.086;11.632;2023-12-14T06:39:55;6.60;;;2.80;;
22429;SDS011;11382;48.086;11.632;2023-12-14T06:42:24;6.75;;;2.92;;
22429;SDS011;11382;48.086;11.632;2023-12-14T06:44:55;5.45;;;2.92;;
22429;SDS011;11382;48.086;11.632;2023-12-14T06:47:22;7.28;;;3.42;;
22429;SDS011;11382;48.086;11.632;2023-12-14T06:49:51;5.43;;;2.60;;
22429;SDS011;11382;48.086;11.632;2023-12-14T06:52:19;4.63;;;2.97;;
22429;SDS011;11382;48.086;11.632;2023-12-14T06:54:47;5.20;;;2.72;;
22429;SDS011;11382;48.086;11.632;2023-12-14T06:57:15;4.00;;;2.83;;
22429;SDS011;11382;48.086;11.632;2023-12-14T06:59:44;5.10;;;2.72;;
22429;SDS011;11382;48.086;11.632;2023-12-14T07:02:12;6.43;;;2.95;;
22429;SDS011;11382;48.086;11.632;2023-12-14T07:04:40;5.20;;;3.20;;
22429;SDS011;11382;48.086;11.632;2023-12-14T07:07:08;6.60;;;3.00;;
22429;SDS011;11382;48.086;11.632;2023-12-14T07:09:36;5.72;;;3.03;;
22429;SDS011;11382;48.086;11.632;2023-12-14T07:12:04;6.18;;;3.47;;
22429;SDS011;11382;48.086;11.632;2023-12-14T07:14:32;5.57;;;2.80;;
22429;SDS011;11382;48.086;11.632;2023-12-14T07:17:02;5.32;;;3.10;;
22429;SDS011;11382;48.086;11.632;2023-12-14T07:19:31;5.22;;;3.28;;
22429;SDS011;11382;48.086;11.632;2023-12-14T07:21:59;7.03;;;3.80;;
22429;SDS011;11382;48.086;11.632;2023-12-14T07:24:27;7.85;;;3.22;;
22429;SDS011;11382;48.086;11.632;2023-12-14T07:27:06;6.45;;;4.20;;
22429;SDS011;11382;48.086;11.632;2023-12-14T07:29:34;6.65;;;3.33;;
22429;SDS011;11382;48.086;11.632;2023-12-14T07:32:03;6.70;;;3.85;;
22429;SDS011;11382;48.086;11.632;2023-12-14T07:34:31;5.85;;;3.47;;
22429;SDS011;11382;48.086;11.632;2023-12-14T07:37:00;6.65;;;3.92;;
22429;SDS011;11382;48.086;11.632;2023-12-14T07:39:28;5.40;;;3.83;;
22429;SDS011;11382;48.086;11.632;2023-12-14T07:41:56;6.18;;;3.85;;
22429;SDS011;11382;48.086;11.632;2023-12-14T07:44:23;6.72;;;3.63;;
22429;SDS011;11382;48.086;11.632;2023-12-14T07:46:52;5.78;;;3.55;;
22429;SDS011;11382;48.086;11.632;2023-12-14T07:49:21;6.70;;;4.10;;
22429;SDS011;11382;48.086;11.632;2023-12-14T07:51:49;7.22;;;4.45;;
22429;SDS011;11382;48.086;11.632;2023-12-14T07:54:17;5.75;;;3.90;;
22429;SDS011;11382;48.086;11.632;2023-12-14T07:56:45;7.05;;;4.32;;
22429;SDS011;11382;48.086;11.632;2023-12-14T07:59:13;5.63;;;4.00;;
22429;SDS011;11382;48.086;11.632;2023-12-14T08:01:41;7.30;;;4.20;;
22429;SDS011;11382;48.086;11.632;2023-12-14T08:04:09;6.60;;;3.97;;
22429;SDS011;11382;48.086;11.632;2023-12-14T08:06:39;7.05;;;4.72;;
22429;SDS011;11382;48.086;11.632;2023-12-14T08:09:07;6.43;;;3.88;;
22429;SDS011;11382;48.086;11.632;2023-12-14T08:11:36;8.73;;;4.13;;
22429;SDS011;11382;48.086;11.632;2023-12-14T08:14:04;4.90;;;3.67;;
22429;SDS011;11382;48.086;11.632;2023-12-14T08:16:32;6.28;;;3.70;;
22429;SDS011;11382;48.086;11.632;2023-12-14T08:19:00;6.38;;;3.85;;
22429;SDS011;11382;48.086;11.632;2023-12-14T08:21:28;5.43;;;4.18;;
22429;SDS011;11382;48.086;11.632;2023-12-14T08:23:57;10.43;;;4.18;;
22429;SDS011;11382;48.086;11.632;2023-12-14T08:26:24;11.07;;;4.35;;
22429;SDS011;11382;48.086;11.632;2023-12-14T08:28:52;6.40;;;3.63;;
22429;SDS011;11382;48.086;11.632;2023-12-14T08:31:20;7.70;;;4.22;;
22429;SDS011;11382;48.086;11.632;2023-12-14T08:33:49;10.00;;;4.20;;
22429;SDS011;11382;48.086;11.632;2023-12-14T08:36:18;7.53;;;4.65;;
22429;SDS011;11382;48.086;11.632;2023-12-14T08:38:45;8.07;;;3.97;;
22429;SDS011;11382;48.086;11.632;2023-12-14T08:41:15;10.57;;;4.40;;
22429;SDS011;11382;48.086;11.632;2023-12-14T08:43:43;7.63;;;4.15;;
22429;SDS011;11382;48.086;11.632;2023-12-14T08:46:11;4.47;;;3.60;;
22429;SDS011;11382;48.086;11.632;2023-12-14T08:48:39;6.95;;;3.67;;
22429;SDS011;11382;48.086;11.632;2023-12-14T08:51:07;5.55;;;3.97;;
22429;SDS011;11382;48.086;11.632;2023-12-14T08:53:35;7.93;;;3.92;;
22429;SDS011;11382;48.086;11.632;2023-12-14T08:56:03;7.03;;;4.18;;
22429;SDS011;11382;48.086;11.632;2023-12-14T08:58:33;7.07;;;4.68;;
22429;SDS011;11382;48.086;11.632;2023-12-14T09:01:02;6.15;;;4.00;;
22429;SDS011;11382;48.086;11.632;2023-12-14T09:03:30;5.85;;;3.72;;
22429;SDS011;11382;48.086;11.632;2023-12-14T09:05:59;5.85;;;3.40;;
22429;SDS011;11382;48.086;11.632;2023-12-14T09:08:29;6.05;;;3.83;;
22429;SDS011;11382;48.086;11.632;2023-12-14T09:10:57;4.93;;;3.55;;
22429;SDS011;11382;48.086;11.632;2023-12-14T09:13:25;5.20;;;3.53;;
22429;SDS011;11382;48.086;11.632;2023-12-14T09:15:55;5.72;;;3.85;;
22429;SDS011;11382;48.086;11.632;2023-12-14T09:18:23;4.40;;;3.03;;
22429;SDS011;11382;48.086;11.632;2023-12-14T09:20:51;4.60;;;3.67;;
22429;SDS011;11382;48.086;11.632;2023-12-14T09:23:19;4.93;;;3.33;;
22429;SDS011;11382;48.086;11.632;2023-12-14T09:25:47;6.03;;;3.80;;
22429;SDS011;11382;48.086;11.632;2023-12-14T09:28:16;4.68;;;3.35;;
22429;SDS011;11382;48.086;11.632;2023-12-14T09:30:44;4.70;;;3.88;;
22429;SDS011;11382;48.086;11.632;2023-12-14T09:33:14;5.45;;;3.80;;
22429;SDS011;11382;48.086;11.632;2023-12-14T09:35:42;4.85;;;3.70;;
22429;SDS011;11382;48.086;11.632;2023-12-14T09:38:10;6.28;;;3.55;;
22429;SDS011;11382;48.086;11.632;2023-12-14T09:40:41;6.32;;;3.45;;
22429;SDS011;11382;48.086;11.632;2023-12-14T09:43:10;4.05;;;2.80;;
22429;SDS011;11382;48.086;11.632;2023-12-14T09:45:40;5.32;;;3.10;;
22429;SDS011;11382;48.086;11.632;2023-12-14T09:48:11;4.28;;;3.38;;
22429;SDS011;11382;48.086;11.632;2023-12-14T09:50:42;4.03;;;3.13;;
22429;SDS011;11382;48.086;11.632;2023-12-14T09:53:11;8.68;;;3.38;;
22429;SDS011;11382;48.086;11.632;2023-12-14T09:55:39;2.92;;;2.30;;
22429;SDS011;11382;48.086;11.632;2023-12-14T09:58:07;3.10;;;2.47;;
22429;SDS011;11382;48.086;11.632;2023-12-14T10:00:37;4.85;;;3.08;;
22429;SDS011;11382;48.086;11.632;2023-12-14T10:03:21;5.25;;;2.75;;
22429;SDS011;11382;48.086;11.632;2023-12-14T10:05:52;6.65;;;3.20;;
22429;SDS011;11382;48.086;11.632;2023-12-14T10:08:21;10.40;;;3.45;;
22429;SDS011;11382;48.086;11.632;2023-12-14T10:10:51;4.88;;;2.92;;
22429;SDS011;11382;48.086;11.632;2023-12-14T10:13:22;5.15;;;3.13;;
22429;SDS011;11382;48.086;11.632;2023-12-14T10:18:34;3.70;;;2.60;;
22429;SDS011;11382;48.086;11.632;2023-12-14T10:21:03;3.20;;;2.47;;
22429;SDS011;11382;48.086;11.632;2023-12-14T10:23:33;4.40;;;1.95;;
22429;SDS011;11382;48.086;11.632;2023-12-14T10:26:04;2.28;;;2.08;;
22429;SDS011;11382;48.086;11.632;2023-12-14T10:28:32;2.88;;;2.00;;
22429;SDS011;11382;48.086;11.632;2023-12-14T10:31:00;2.33;;;1.52;;
22429;SDS011;11382;48.086;11.632;2023-12-14T10:33:30;2.25;;;1.70;;
22429;SDS011;11382;48.086;11.632;2023-12-14T10:35:59;2.25;;;1.60;;
22429;SDS011;11382;48.086;11.632;2023-12-14T10:38:28;1.70;;;1.40;;
22429;SDS011;11382;48.086;11.632;2023-12-14T10:40:58;1.58;;;1.23;;
22429;SDS011;11382;48.086;11.632;2023-12-14T10:43:27;1.63;;;1.45;;
22429;SDS011;11382;48.086;11.632;2023-12-14T10:46:15;2.05;;;1.25;;
22429;SDS011;11382;48.086;11.632;2023-12-14T10:48:43;2.33;;;1.23;;
22429;SDS011;11382;48.086;11.632;2023-12-14T10:51:14;2.05;;;1.02;;
22429;SDS011;11382;48.086;11.632;2023-12-14T10:53:44;1.58;;;1.13;;
22429;SDS011;11382;48.086;11.632;2023-12-14T10:56:15;2.25;;;1.23;;
22429;SDS011;11382;48.086;11.632;2023-12-14T10:58:44;1.35;;;1.25;;
22429;SDS011;11382;48.086;11.632;2023-12-14T11:01:14;1.65;;;1.27;;
22429;SDS011;11382;48.086;11.632;2023-12-14T11:03:44;1.48;;;1.05;;
22429;SDS011;11382;48.086;11.632;2023-12-14T11:09:01;2.00;;;1.13;;
22429;SDS011;11382;48.086;11.632;2023-12-14T11:11:39;1.90;;;1.20;;
22429;SDS011;11382;48.086;11.632;2023-12-14T11:14:10;1.85;;;1.40;;
22429;SDS011;11382;48.086;11.632;2023-12-14T11:16:39;6.65;;;1.40;;
22429;SDS011;11382;48.086;11.632;2023-12-14T11:19:25;2.70;;;1.50;;
22429;SDS011;11382;48.086;11.632;2023-12-14T11:22:10;1.85;;;1.63;;
22429;SDS011;11382;48.086;11.632;2023-12-14T11:24:51;1.60;;;1.40;;
22429;SDS011;11382;48.086;11.632;2023-12-14T11:27:22;1.55;;;1.45;;
22429;SDS011;11382;48.086;11.632;2023-12-14T11:29:54;2.70;;;1.70;;
22429;SDS011;11382;48.086;11.632;2023-12-14T11:32:24;2.20;;;1.58;;
22429;SDS011;11382;48.086;11.632;2023-12-14T11:34:54;2.58;;;1.80;;
22429;SDS011;11382;48.086;11.632;2023-12-14T11:37:24;2.35;;;1.50;;
22429;SDS011;11382;48.086;11.632;2023-12-14T11:39:54;2.88;;;1.38;;
22429;SDS011;11382;48.086;11.632;2023-12-14T11:42:22;1.60;;;1.50;;
22429;SDS011;11382;48.086;11.632;2023-12-14T11:44:51;3.75;;;1.50;;
22429;SDS011;11382;48.086;11.632;2023-12-14T11:47:19;3.70;;;1.50;;
22429;SDS011;11382;48.086;11.632;2023-12-14T11:49:47;2.08;;;1.50;;
22429;SDS011;11382;48.086;11.632;2023-12-14T11:52:17;1.95;;;1.45;;
22429;SDS011;11382;48.086;11.632;2023-12-14T11:54:46;1.73;;;1.30;;
22429;SDS011;11382;48.086;11.632;2023-12-14T11:57:15;2.75;;;1.10;;
22429;SDS011;11382;48.086;11.632;2023-12-14T11:59:44;2.13;;;1.30;;
22429;SDS011;11382;48.086;11.632;2023-12-14T12:02:12;1.85;;;1.20;;
22429;SDS011;11382;48.086;11.632;2023-12-14T12:04:51;1.48;;;1.17;;
22429;SDS011;11382;48.086;11.632;2023-12-14T12:07:20;1.75;;;1.08;;
22429;SDS011;11382;48.086;11.632;2023-12-14T12:09:50;1.75;;;1.10;;
22429;SDS011;11382;48.086;11.632;2023-12-14T12:12:18;1.70;;;1.20;;
22429;SDS011;11382;48.086;11.632;2023-12-14T12:14:45;1.95;;;1.30;;
22429;SDS011;11382;48.086;11.632;2023-12-14T12:17:15;2.20;;;1.50;;
22429;SDS011;11382;48.086;11.632;2023-12-14T12:19:45;2.65;;;1.65;;
22429;SDS011;11382;48.086;11.632;2023-12-14T12:22:13;2.40;;;1.35;;
22429;SDS011;11382;48.086;11.632;2023-12-14T12:24:41;3.60;;;1.48;;
22429;SDS011;11382;48.086;11.632;2023-12-14T12:27:11;4.35;;;1.65;;
22429;SDS011;11382;48.086;11.632;2023-12-14T12:29:39;2.72;;;1.60;;
22429;SDS011;11382;48.086;11.632;2023-12-14T12:32:07;1.60;;;1.17;;
22429;SDS011;11382;48.086;11.632;2023-12-14T12:34:35;5.38;;;1.70;;
22429;SDS011;11382;48.086;11.632;2023-12-14T12:37:03;2.33;;;1.48;;
22429;SDS011;11382;48.086;11.632;2023-12-14T12:39:31;2.65;;;1.40;;
22429;SDS011;11382;48.086;11.632;2023-12-14T12:42:00;2.83;;;1.58;;
22429;SDS011;11382;48.086;11.632;2023-12-14T12:44:31;3.35;;;1.30;;
22429;SDS011;11382;48.086;11.632;2023-12-14T12:46:59;2.72;;;1.40;;
22429;SDS011;11382;48.086;11.632;2023-12-14T12:49:36;2.10;;;1.35;;
22429;SDS011;11382;48.086;11.632;2023-12-14T12:52:05;3.30;;;1.45;;
22429;SDS011;11382;48.086;11.632;2023-12-14T12:54:33;2.92;;;1.25;;
22429;SDS011;11382;48.086;11.632;2023-12-14T12:57:01;4.15;;;1.30;;
22429;SDS011;11382;48.086;11.632;2023-12-14T12:59:29;2.03;;;1.23;;
22429;SDS011;11382;48.086;11.632;2023-12-14T13:01:59;2.47;;;1.50;;
22429;SDS011;11382;48.086;11.632;2023-12-14T13:04:29;1.70;;;1.30;;
22429;SDS011;11382;48.086;11.632;2023-12-14T13:06:58;1.42;;;1.33;;
22429;SDS011;11382;48.086;11.632;2023-12-14T13:09:28;1.60;;;1.25;;
22429;SDS011;11382;48.086;11.632;2023-12-14T13:11:56;2.92;;;1.23;;
22429;SDS011;11382;48.086;11.632;2023-12-14T13:14:24;2.92;;;1.33;;
22429;SDS011;11382;48.086;11.632;2023-12-14T13:16:53;4.53;;;1.80;;
22429;SDS011;11382;48.086;11.632;2023-12-14T13:19:21;1.33;;;1.23;;
22429;SDS011;11382;48.086;11.632;2023-12-14T13:21:50;2.80;;;1.50;;
22429;SDS011;11382;48.086;11.632;2023-12-14T13:24:18;2.58;;;1.00;;
22429;SDS011;11382;48.086;11.632;2023-12-14T13:26:46;1.40;;;1.10;;
22429;SDS011;11382;48.086;11.632;2023-12-14T13:29:14;1.85;;;1.23;;
22429;SDS011;11382;48.086;11.632;2023-12-14T13:31:42;1.20;;;1.10;;
22429;SDS011;11382;48.086;11.632;2023-12-14T13:34:12;2.30;;;1.20;;
22429;SDS011;11382;48.086;11.632;2023-12-14T13:36:40;4.80;;;1.40;;
22429;SDS011;11382;48.086;11.632;2023-12-14T13:39:08;3.40;;;1.30;;
22429;SDS011;11382;48.086;11.632;2023-12-14T13:41:37;1.13;;;1.00;;
22429;SDS011;11382;48.086;11.632;2023-12-14T13:44:15;1.10;;;1.00;;
22429;SDS011;11382;48.086;11.632;2023-12-14T13:46:43;3.08;;;1.23;;
22429;SDS011;11382;48.086;11.632;2023-12-14T13:49:13;2.63;;;1.20;;
22429;SDS011;11382;48.086;11.632;2023-12-14T13:51:41;1.63;;;1.23;;
22429;SDS011;11382;48.086;11.632;2023-12-14T13:54:09;1.67;;;1.02;;
22429;SDS011;11382;48.086;11.632;2023-12-14T13:56:37;2.58;;;1.10;;
22429;SDS011;11382;48.086;11.632;2023-12-14T13:59:05;1.70;;;1.20;;
22429;SDS011;11382;48.086;11.632;2023-12-14T14:01:33;2.00;;;1.38;;
22429;SDS011;11382;48.086;11.632;2023-12-14T14:04:01;1.90;;;0.98;;
22429;SDS011;11382;48.086;11.632;2023-12-14T14:06:30;2.10;;;1.20;;
22429;SDS011;11382;48.086;11.632;2023-12-14T14:08:58;1.42;;;1.00;;
22429;SDS011;11382;48.086;11.632;2023-12-14T14:11:26;2.20;;;1.50;;
22429;SDS011;11382;48.086;11.632;2023-12-14T14:13:54;2.00;;;1.30;;
22429;SDS011;11382;48.086;11.632;2023-12-14T14:16:22;2.22;;;1.20;;
22429;SDS011;11382;48.086;11.632;2023-12-14T14:18:51;1.85;;;1.20;;
22429;SDS011;11382;48.086;11.632;2023-12-14T14:21:19;2.70;;;1.63;;
22429;SDS011;11382;48.086;11.632;2023-12-14T14:23:48;4.13;;;1.52;;
22429;SDS011;11382;48.086;11.632;2023-12-14T14:26:16;2.83;;;1.73;;
22429;SDS011;11382;48.086;11.632;2023-12-14T14:28:44;2.28;;;1.50;;
22429;SDS011;11382;48.086;11.632;2023-12-14T14:31:13;1.98;;;1.75;;
22429;SDS011;11382;48.086;11.632;2023-12-14T14:33:41;2.78;;;1.40;;
22429;SDS011;11382;48.086;11.632;2023-12-14T14:36:10;3.40;;;1.70;;
22429;SDS011;11382;48.086;11.632;2023-12-14T14:38:38;1.98;;;1.40;;
22429;SDS011;11382;48.086;11.632;2023-12-14T14:41:07;2.38;;;1.58;;
22429;SDS011;11382;48.086;11.632;2023-12-14T14:43:35;3.22;;;1.30;;
22429;SDS011;11382;48.086;11.632;2023-12-14T14:46:03;2.60;;;1.58;;
22429;SDS011;11382;48.086;11.632;2023-12-14T14:48:31;2.40;;;1.50;;
22429;SDS011;11382;48.086;11.632;2023-12-14T14:51:00;1.85;;;1.33;;
22429;SDS011;11382;48.086;11.632;2023-12-14T14:53:30;1.48;;;1.38;;